Time;durP1;ratioP1;P1;durP2;ratioP2;P2;SDS_P1;SDS_P2;PMS_P1;PMS_P2;Temp;Humidity;BMP_temperature;BMP_pressure;BME280_temperature;BME280_humidity;BME280_pressure;Samples;Min_cycle;Max_cycle;Signal;HPM_P1;HPM_P2
2023/11/15 00:02:11;;;;;;;;;;;19.80;67.70;;;;;;5001792;28;1654;-66
2023/11/15 00:04:36;;;;;;;;;;;19.70;67.70;;;;;;5002939;28;1314;-65
2023/11/15 00:07:02;;;;;;;;;;;19.70;67.70;;;;;;5005324;28;1083;-66
2023/11/15 00:09:29;;;;;;;;;;;19.70;67.70;;;;;;5003260;28;988;-66
2023/11/15 00:11:55;;;;;;;;;;;19.70;67.70;;;;;;5004135;28;1974;-66
2023/11/15 00:14:21;;;;;;;;;;;19.70;67.70;;;;;;5001656;28;1105;-66
2023/11/15 00:16:46;;;;;;;;;;;19.80;67.80;;;;;;5018279;28;1358;-67
2023/11/15 00:19:13;;;;;;;;;;;19.80;67.80;;;;;;5006993;28;1366;-66
2023/11/15 00:21:38;;;;;;;;;;;19.70;67.70;;;;;;5003409;28;1267;-66
2023/11/15 00:24:04;;;;;;;;;;;19.70;67.80;;;;;;5002592;28;1490;-66
2023/11/15 00:26:30;;;;;;;;;;;19.80;67.80;;;;;;5000902;28;1467;-66
2023/11/15 00:28:55;;;;;;;;;;;19.70;67.80;;;;;;5001335;28;1266;-66
2023/11/15 00:31:21;;;;;;;;;;;19.80;67.90;;;;;;5002540;28;1926;-66
2023/11/15 00:33:46;;;;;;;;;;;19.70;67.80;;;;;;5019677;28;1357;-66
2023/11/15 00:36:12;;;;;;;;;;;19.80;67.90;;;;;;5001895;28;1201;-66
2023/11/15 00:38:38;;;;;;;;;;;19.70;67.80;;;;;;5003555;28;1331;-66
2023/11/15 00:41:04;;;;;;;;;;;19.70;68.60;;;;;;5002049;28;1456;-65
2023/11/15 00:43:29;;;;;;;;;;;19.70;67.90;;;;;;5005865;28;1390;-66
2023/11/15 00:45:55;;;;;;;;;;;19.80;68.00;;;;;;5003665;28;1263;-66
2023/11/15 00:48:20;;;;;;;;;;;19.70;67.90;;;;;;5002441;28;1385;-66
2023/11/15 00:50:46;;;;;;;;;;;19.70;67.90;;;;;;5004106;28;1378;-67
2023/11/15 00:53:12;;;;;;;;;;;19.70;67.90;;;;;;5002394;28;1906;-67
2023/11/15 00:55:38;;;;;;;;;;;19.70;67.90;;;;;;5001998;28;1428;-67
2023/11/15 00:58:04;;;;;;;;;;;19.70;67.90;;;;;;5003042;28;1327;-67
2023/11/15 01:00:38;;;;;;;;;;;19.70;67.90;;;;;;5000749;28;1449;-67
2023/11/15 01:03:04;;;;;;;;;;;19.70;67.90;;;;;;5003882;28;1503;-67
2023/11/15 01:05:30;;;;;;;;;;;19.70;68.00;;;;;;5000585;28;1482;-66
2023/11/15 01:07:57;;;;;;;;;;;19.70;68.00;;;;;;4999192;28;1363;-67
2023/11/15 01:10:24;;;;;;;;;;;19.70;68.00;;;;;;5006606;28;1455;-65
2023/11/15 01:12:51;;;;;;;;;;;19.70;68.00;;;;;;5005988;28;1923;-67
2023/11/15 01:15:16;;;;;;;;;;;19.70;68.00;;;;;;5003204;28;1393;-65
2023/11/15 01:17:42;;;;;;;;;;;19.70;68.00;;;;;;4999278;28;1369;-66
2023/11/15 01:20:08;;;;;;;;;;;19.70;68.00;;;;;;5002074;28;1505;-66
2023/11/15 01:22:33;;;;;;;;;;;19.70;68.00;;;;;;5003397;28;1442;-66
2023/11/15 01:24:58;;;;;;;;;;;19.70;68.00;;;;;;5003241;28;1442;-66
2023/11/15 01:27:27;;;;;;;;;;;19.70;68.00;;;;;;5000570;28;1160;-66
2023/11/15 01:29:53;;;;;;;;;;;19.70;68.20;;;;;;5001061;28;939;-66
2023/11/15 01:32:19;;;;;;;;;;;19.70;68.00;;;;;;5001538;28;1960;-67
2023/11/15 01:34:44;;;;;;;;;;;19.70;68.00;;;;;;5003136;28;1461;-67
2023/11/15 01:37:10;;;;;;;;;;;19.70;68.10;;;;;;4999004;28;992;-67
2023/11/15 01:39:35;;;;;;;;;;;19.70;68.10;;;;;;4999994;28;1621;-67
2023/11/15 01:42:03;;;;;;;;;;;19.70;68.10;;;;;;5000376;28;1359;-67
2023/11/15 01:44:28;;;;;;;;;;;19.70;68.10;;;;;;5001710;28;1440;-67
2023/11/15 01:46:54;;;;;;;;;;;19.70;68.10;;;;;;5001528;28;1402;-67
2023/11/15 01:49:20;;;;;;;;;;;19.70;68.10;;;;;;5007637;28;920;-66
2023/11/15 01:51:45;;;;;;;;;;;19.70;68.10;;;;;;5000807;28;1879;-66
2023/11/15 01:54:11;;;;;;;;;;;19.70;68.10;;;;;;5007478;28;1422;-66
2023/11/15 01:56:40;;;;;;;;;;;19.70;68.10;;;;;;5002905;28;1371;-66
2023/11/15 01:59:05;;;;;;;;;;;19.70;68.10;;;;;;5001453;28;1421;-66
2023/11/15 02:01:31;;;;;;;;;;;19.70;68.10;;;;;;5002769;28;1373;-66
2023/11/15 02:03:56;;;;;;;;;;;19.70;68.20;;;;;;5002791;28;1494;-66
2023/11/15 02:06:23;;;;;;;;;;;19.70;68.20;;;;;;5002203;28;1380;-67
2023/11/15 02:08:49;;;;;;;;;;;19.70;68.20;;;;;;5014259;28;1480;-66
2023/11/15 02:11:14;;;;;;;;;;;19.70;68.20;;;;;;5000619;28;1965;-66
2023/11/15 02:13:40;;;;;;;;;;;19.70;68.20;;;;;;4999644;28;1411;-66
2023/11/15 02:16:06;;;;;;;;;;;19.70;68.20;;;;;;5007857;28;1361;-66
2023/11/15 02:18:32;;;;;;;;;;;19.70;68.20;;;;;;5007668;28;1304;-66
2023/11/15 02:20:58;;;;;;;;;;;19.70;68.20;;;;;;5002955;28;1265;-67
2023/11/15 02:23:23;;;;;;;;;;;19.70;68.20;;;;;;5012144;28;1401;-66
2023/11/15 02:25:50;;;;;;;;;;;19.70;68.20;;;;;;5022671;28;1350;-65
2023/11/15 02:28:16;;;;;;;;;;;19.70;68.20;;;;;;5008166;28;1351;-66
2023/11/15 02:30:41;;;;;;;;;;;19.60;68.20;;;;;;5006126;28;1511;-67
2023/11/15 02:33:07;;;;;;;;;;;19.60;68.20;;;;;;5004875;28;1910;-66
2023/11/15 02:35:32;;;;;;;;;;;19.60;68.20;;;;;;5007241;28;1508;-66
2023/11/15 02:37:58;;;;;;;;;;;19.70;68.30;;;;;;5008710;28;1366;-66
2023/11/15 02:40:24;;;;;;;;;;;19.60;68.20;;;;;;5006376;28;1248;-66
2023/11/15 02:42:49;;;;;;;;;;;19.70;68.30;;;;;;5009225;28;1427;-66
2023/11/15 02:45:16;;;;;;;;;;;19.70;68.30;;;;;;5008557;28;1446;-66
2023/11/15 02:47:42;;;;;;;;;;;19.70;68.30;;;;;;5008210;28;1373;-65
2023/11/15 02:50:08;;;;;;;;;;;19.60;68.20;;;;;;5023858;28;1351;-66
2023/11/15 02:52:35;;;;;;;;;;;19.70;68.30;;;;;;5006009;28;1914;-66
2023/11/15 02:55:01;;;;;;;;;;;19.60;68.20;;;;;;5007657;28;1558;-66
2023/11/15 02:57:27;;;;;;;;;;;19.70;68.30;;;;;;5004961;28;1363;-66
2023/11/15 02:59:52;;;;;;;;;;;19.60;68.30;;;;;;5008127;28;945;-65
2023/11/15 03:02:17;;;;;;;;;;;19.70;68.40;;;;;;5007558;28;1717;-67
2023/11/15 03:04:43;;;;;;;;;;;19.70;68.30;;;;;;5006324;28;998;-66
2023/11/15 03:07:08;;;;;;;;;;;19.70;68.30;;;;;;5004706;28;1279;-67
2023/11/15 03:09:34;;;;;;;;;;;19.60;68.30;;;;;;5017301;28;1010;-66
2023/11/15 03:11:59;;;;;;;;;;;19.60;68.30;;;;;;5005613;28;1977;-67
2023/11/15 03:14:26;;;;;;;;;;;19.60;68.30;;;;;;5006993;28;1309;-66
2023/11/15 03:16:52;;;;;;;;;;;19.60;68.30;;;;;;5007213;28;1500;-67
2023/11/15 03:19:17;;;;;;;;;;;19.60;68.30;;;;;;5008242;28;1721;-67
2023/11/15 03:21:43;;;;;;;;;;;19.60;68.30;;;;;;5007445;28;1579;-64
2023/11/15 03:24:09;;;;;;;;;;;19.60;68.30;;;;;;5007870;28;1657;-64
2023/11/15 03:26:35;;;;;;;;;;;19.60;68.40;;;;;;5005856;28;1465;-64
2023/11/15 03:29:01;;;;;;;;;;;19.60;68.30;;;;;;5005489;28;1409;-64
2023/11/15 03:31:26;;;;;;;;;;;19.60;68.30;;;;;;5005856;28;1906;-65
2023/11/15 03:33:52;;;;;;;;;;;19.60;68.40;;;;;;5005476;28;2198;-66
2023/11/15 03:36:17;;;;;;;;;;;19.60;68.40;;;;;;5000139;28;1268;-66
2023/11/15 03:38:43;;;;;;;;;;;19.60;68.40;;;;;;5002607;28;1618;-65
2023/11/15 03:41:09;;;;;;;;;;;19.60;68.40;;;;;;5003850;28;1291;-65
2023/11/15 03:43:35;;;;;;;;;;;19.60;69.10;;;;;;5021454;28;1422;-66
2023/11/15 03:46:01;;;;;;;;;;;19.60;68.40;;;;;;5003560;28;1370;-67
2023/11/15 03:48:26;;;;;;;;;;;19.60;68.40;;;;;;5002521;28;1168;-68
2023/11/15 03:50:52;;;;;;;;;;;19.60;68.40;;;;;;5006189;28;1985;-67
2023/11/15 03:53:17;;;;;;;;;;;19.60;68.40;;;;;;5004120;28;1953;-66
2023/11/15 03:55:43;;;;;;;;;;;19.60;68.40;;;;;;5002494;28;1583;-67
2023/11/15 03:58:09;;;;;;;;;;;19.60;68.40;;;;;;5001678;28;1441;-67
2023/11/15 04:00:34;;;;;;;;;;;19.60;68.40;;;;;;5004224;28;1323;-67
2023/11/15 04:02:59;;;;;;;;;;;19.60;68.40;;;;;;5004585;28;1512;-67
2023/11/15 04:05:27;;;;;;;;;;;19.60;68.40;;;;;;5002336;28;1315;-67
2023/11/15 04:07:53;;;;;;;;;;;19.60;68.40;;;;;;5000978;28;1333;-67
2023/11/15 04:10:22;;;;;;;;;;;19.60;68.40;;;;;;5005246;28;1460;-66
2023/11/15 04:12:52;;;;;;;;;;;19.60;68.40;;;;;;5004873;28;1902;-67
2023/11/15 04:15:17;;;;;;;;;;;19.60;68.40;;;;;;5003204;28;1477;-67
2023/11/15 04:17:43;;;;;;;;;;;19.60;68.40;;;;;;4999859;28;1481;-67
2023/11/15 04:20:08;;;;;;;;;;;19.60;68.40;;;;;;5004184;28;1365;-67
2023/11/15 04:22:34;;;;;;;;;;;19.60;68.40;;;;;;5004254;28;1748;-67
2023/11/15 04:24:59;;;;;;;;;;;19.60;68.40;;;;;;5004815;28;1279;-67
2023/11/15 04:27:25;;;;;;;;;;;19.60;68.40;;;;;;5003204;28;1340;-67
2023/11/15 04:29:51;;;;;;;;;;;19.60;68.40;;;;;;5003519;28;1457;-67
2023/11/15 04:32:16;;;;;;;;;;;19.60;68.40;;;;;;5002998;28;1906;-66
2023/11/15 04:34:41;;;;;;;;;;;19.60;68.40;;;;;;5002393;28;1393;-66
2023/11/15 04:37:09;;;;;;;;;;;19.60;68.40;;;;;;5004490;28;1445;-66
2023/11/15 04:39:34;;;;;;;;;;;19.60;68.40;;;;;;5001058;28;1372;-67
2023/11/15 04:42:00;;;;;;;;;;;19.60;68.40;;;;;;5001804;28;1494;-66
2023/11/15 04:44:27;;;;;;;;;;;19.60;68.50;;;;;;5004189;28;1326;-67
2023/11/15 04:46:52;;;;;;;;;;;19.60;68.40;;;;;;5002184;28;1060;-67
2023/11/15 04:49:18;;;;;;;;;;;19.60;68.40;;;;;;5018090;28;1430;-66
2023/11/15 04:51:43;;;;;;;;;;;19.60;68.50;;;;;;5003173;28;1946;-67
2023/11/15 04:54:10;;;;;;;;;;;19.60;68.40;;;;;;5020733;28;1434;-67
2023/11/15 04:56:36;;;;;;;;;;;19.60;68.50;;;;;;5002474;28;1353;-67
2023/11/15 04:59:01;;;;;;;;;;;19.60;68.50;;;;;;4999287;28;1528;-67
2023/11/15 05:01:27;;;;;;;;;;;19.60;68.50;;;;;;5001649;28;1338;-67
2023/11/15 05:03:52;;;;;;;;;;;19.60;68.50;;;;;;5002542;28;1374;-67
2023/11/15 05:06:18;;;;;;;;;;;19.60;68.50;;;;;;5002144;28;1397;-67
2023/11/15 05:08:43;;;;;;;;;;;19.60;68.50;;;;;;4999110;28;1432;-67
2023/11/15 05:11:09;;;;;;;;;;;19.60;68.40;;;;;;5000592;28;1961;-67
2023/11/15 05:13:34;;;;;;;;;;;19.60;68.40;;;;;;5001713;28;1447;-66
2023/11/15 05:16:00;;;;;;;;;;;19.60;68.40;;;;;;5003005;28;1481;-67
2023/11/15 05:18:25;;;;;;;;;;;19.70;68.40;;;;;;5002696;28;1366;-67
2023/11/15 05:20:51;;;;;;;;;;;19.60;68.30;;;;;;4998458;28;1526;-67
2023/11/15 05:23:17;;;;;;;;;;;19.70;68.30;;;;;;5003243;28;1375;-67
2023/11/15 05:25:43;;;;;;;;;;;19.70;68.30;;;;;;5004282;28;1324;-67
2023/11/15 05:28:09;;;;;;;;;;;19.70;68.20;;;;;;4998697;28;1361;-67
2023/11/15 05:30:34;;;;;;;;;;;19.70;68.10;;;;;;4998541;28;1409;-67
2023/11/15 05:33:00;;;;;;;;;;;19.70;68.00;;;;;;5001429;28;1899;-67
2023/11/15 05:35:26;;;;;;;;;;;19.80;68.00;;;;;;5002541;28;1605;-68
2023/11/15 05:37:51;;;;;;;;;;;19.80;67.90;;;;;;4997122;28;1209;-67
2023/11/15 05:40:16;;;;;;;;;;;19.80;67.90;;;;;;5002178;28;1521;-67
2023/11/15 05:42:42;;;;;;;;;;;19.80;67.80;;;;;;5000550;28;1426;-67
2023/11/15 05:45:09;;;;;;;;;;;19.80;67.80;;;;;;5001805;28;1341;-68
2023/11/15 05:47:35;;;;;;;;;;;19.80;67.70;;;;;;5000697;28;1491;-67
2023/11/15 05:50:00;;;;;;;;;;;19.80;67.60;;;;;;5001407;28;914;-68
2023/11/15 05:52:26;;;;;;;;;;;19.80;67.60;;;;;;5001095;28;1964;-68
2023/11/15 05:54:51;;;;;;;;;;;19.90;67.60;;;;;;5018828;28;991;-67
2023/11/15 05:57:17;;;;;;;;;;;19.90;67.60;;;;;;5001459;28;1454;-68
2023/11/15 05:59:42;;;;;;;;;;;19.90;67.50;;;;;;4999449;28;1083;-67
2023/11/15 06:02:08;;;;;;;;;;;19.90;67.50;;;;;;4998668;28;1260;-66
2023/11/15 06:04:33;;;;;;;;;;;19.90;67.40;;;;;;4999795;28;1291;-66
2023/11/15 06:06:59;;;;;;;;;;;19.90;67.40;;;;;;5015022;28;1517;-66
2023/11/15 06:09:25;;;;;;;;;;;19.90;67.30;;;;;;5005513;28;1075;-66
2023/11/15 06:11:51;;;;;;;;;;;19.90;67.30;;;;;;5000145;28;1906;-66
2023/11/15 06:14:17;;;;;;;;;;;19.90;67.30;;;;;;5002588;28;1312;-66
2023/11/15 06:16:42;;;;;;;;;;;20.00;67.30;;;;;;4999727;28;1427;-66
2023/11/15 06:19:08;;;;;;;;;;;20.00;67.20;;;;;;5001896;28;1460;-66
2023/11/15 06:21:34;;;;;;;;;;;20.00;67.20;;;;;;5001943;28;1402;-66
2023/11/15 06:23:59;;;;;;;;;;;20.00;67.10;;;;;;5000322;28;1539;-66
2023/11/15 06:26:25;;;;;;;;;;;20.00;67.10;;;;;;5001494;28;1371;-66
2023/11/15 06:28:51;;;;;;;;;;;20.00;67.00;;;;;;5001193;28;1561;-66
2023/11/15 06:31:18;;;;;;;;;;;20.00;67.00;;;;;;5000138;28;1894;-66
2023/11/15 06:33:44;;;;;;;;;;;20.00;67.00;;;;;;5001994;28;1213;-66
2023/11/15 06:36:10;;;;;;;;;;;20.00;66.90;;;;;;4998359;28;1002;-66
2023/11/15 06:38:35;;;;;;;;;;;20.00;66.90;;;;;;4998714;28;1197;-66
2023/11/15 06:41:01;;;;;;;;;;;20.00;66.90;;;;;;5003243;28;1376;-66
2023/11/15 06:43:27;;;;;;;;;;;20.10;66.90;;;;;;5002762;28;1351;-67
2023/11/15 06:45:52;;;;;;;;;;;20.10;66.90;;;;;;5000725;28;1273;-66
2023/11/15 06:48:18;;;;;;;;;;;20.10;66.90;;;;;;4998233;28;1467;-66
2023/11/15 06:50:44;;;;;;;;;;;20.00;66.80;;;;;;5000322;28;1407;-66
2023/11/15 06:53:11;;;;;;;;;;;20.00;66.80;;;;;;5000694;28;1910;-66
2023/11/15 06:55:37;;;;;;;;;;;20.00;66.90;;;;;;5000506;28;1403;-68
2023/11/15 06:58:02;;;;;;;;;;;20.10;66.90;;;;;;5000395;28;1559;-66
2023/11/15 07:00:28;;;;;;;;;;;20.00;66.90;;;;;;5003585;28;1594;-67
2023/11/15 07:02:53;;;;;;;;;;;20.00;66.90;;;;;;5005210;28;1375;-67
2023/11/15 07:05:19;;;;;;;;;;;20.00;66.90;;;;;;5004377;28;1296;-67
2023/11/15 07:07:44;;;;;;;;;;;20.00;66.90;;;;;;5004272;28;1305;-67
2023/11/15 07:10:10;;;;;;;;;;;20.00;67.00;;;;;;5003684;28;1256;-67
2023/11/15 07:12:36;;;;;;;;;;;20.00;67.00;;;;;;5002495;28;1986;-66
2023/11/15 07:15:07;;;;;;;;;;;20.00;67.00;;;;;;5005010;28;1079;-66
2023/11/15 07:17:33;;;;;;;;;;;20.00;67.00;;;;;;5003961;28;1409;-67
2023/11/15 07:19:58;;;;;;;;;;;20.00;67.10;;;;;;5006119;28;1172;-68
2023/11/15 07:22:24;;;;;;;;;;;20.00;67.10;;;;;;5005092;28;1264;-67
2023/11/15 07:24:51;;;;;;;;;;;20.00;67.10;;;;;;5003098;28;1549;-67
2023/11/15 07:27:17;;;;;;;;;;;20.00;67.10;;;;;;5005624;28;1387;-67
2023/11/15 07:29:45;;;;;;;;;;;20.00;67.20;;;;;;5004692;28;1310;-67
2023/11/15 07:32:11;;;;;;;;;;;20.00;67.20;;;;;;5003806;28;1898;-67
2023/11/15 07:34:39;;;;;;;;;;;20.00;67.20;;;;;;5004283;28;1478;-67
2023/11/15 07:37:04;;;;;;;;;;;20.00;67.20;;;;;;5002335;28;1342;-67
2023/11/15 07:39:30;;;;;;;;;;;20.00;67.20;;;;;;5006125;28;1454;-67
2023/11/15 07:41:57;;;;;;;;;;;20.00;67.20;;;;;;5002719;28;1112;-67
2023/11/15 07:44:25;;;;;;;;;;;20.00;67.20;;;;;;5005021;28;1197;-67
2023/11/15 07:46:52;;;;;;;;;;;20.00;67.20;;;;;;5004424;28;1830;-67
2023/11/15 07:49:23;;;;;;;;;;;20.00;67.20;;;;;;5003708;28;1307;-68
2023/11/15 07:51:49;;;;;;;;;;;20.00;67.20;;;;;;5006683;28;1975;-68
2023/11/15 07:54:14;;;;;;;;;;;20.00;67.20;;;;;;5001760;28;1488;-69
2023/11/15 07:56:40;;;;;;;;;;;20.00;67.10;;;;;;5001115;28;1370;-68
2023/11/15 07:59:06;;;;;;;;;;;20.00;67.20;;;;;;5019551;28;1679;-67
2023/11/15 08:01:31;;;;;;;;;;;20.00;67.20;;;;;;5002466;28;1523;-68
2023/11/15 08:03:58;;;;;;;;;;;20.00;67.10;;;;;;5004408;28;1421;-67
2023/11/15 08:06:24;;;;;;;;;;;20.00;67.10;;;;;;5004795;28;1594;-66
2023/11/15 08:08:49;;;;;;;;;;;20.00;67.10;;;;;;5003807;28;1662;-66
2023/11/15 08:11:15;;;;;;;;;;;20.00;67.00;;;;;;5004145;28;1910;-66
2023/11/15 08:13:43;;;;;;;;;;;20.00;67.00;;;;;;5004655;28;1398;-66
2023/11/15 08:16:12;;;;;;;;;;;20.00;67.00;;;;;;5002469;28;2110;-66
2023/11/15 08:18:42;;;;;;;;;;;20.00;66.90;;;;;;5005146;28;1456;-67
2023/11/15 08:21:09;;;;;;;;;;;20.00;66.90;;;;;;5002911;28;1703;-67
2023/11/15 08:23:35;;;;;;;;;;;20.00;66.90;;;;;;5002527;28;1373;-66
2023/11/15 08:26:02;;;;;;;;;;;20.10;66.90;;;;;;5019636;28;1475;-66
2023/11/15 08:28:28;;;;;;;;;;;20.10;66.90;;;;;;5003557;28;1516;-68
2023/11/15 08:30:54;;;;;;;;;;;20.10;66.90;;;;;;5005503;28;1841;-67
2023/11/15 08:33:20;;;;;;;;;;;20.10;66.90;;;;;;5002717;28;1973;-67
2023/11/15 08:35:47;;;;;;;;;;;20.10;66.90;;;;;;4998878;28;1491;-66
2023/11/15 08:38:12;;;;;;;;;;;20.10;66.90;;;;;;5001027;28;1352;-66
2023/11/15 08:40:41;;;;;;;;;;;20.10;66.90;;;;;;5005207;28;1324;-67
2023/11/15 08:43:08;;;;;;;;;;;20.00;66.80;;;;;;5002660;28;1292;-67
2023/11/15 08:45:34;;;;;;;;;;;20.10;66.90;;;;;;5002079;28;1134;-68
2023/11/15 08:48:04;;;;;;;;;;;20.00;66.90;;;;;;5003390;28;1165;-66
2023/11/15 08:50:30;;;;;;;;;;;20.00;66.90;;;;;;5003548;28;1193;-66
2023/11/15 08:52:56;;;;;;;;;;;20.00;66.90;;;;;;5003724;28;1902;-66
2023/11/15 08:55:21;;;;;;;;;;;20.00;67.00;;;;;;5003995;28;1525;-67
2023/11/15 08:57:47;;;;;;;;;;;20.00;67.00;;;;;;5005179;28;1341;-67
2023/11/15 09:00:15;;;;;;;;;;;20.00;67.00;;;;;;5001860;28;1465;-67
2023/11/15 09:02:46;;;;;;;;;;;20.00;67.00;;;;;;5007663;28;1378;-67
2023/11/15 09:05:14;;;;;;;;;;;20.00;67.10;;;;;;5000633;28;1531;-66
2023/11/15 09:07:39;;;;;;;;;;;20.00;67.10;;;;;;5004216;28;1241;-67
2023/11/15 09:10:08;;;;;;;;;;;20.00;67.10;;;;;;5005414;28;1092;-67
2023/11/15 09:12:37;;;;;;;;;;;20.00;67.10;;;;;;5002162;28;1906;-66
2023/11/15 09:15:11;;;;;;;;;;;20.00;67.20;;;;;;5000610;28;1606;-68
2023/11/15 09:17:45;;;;;;;;;;;20.00;67.10;;;;;;5000957;28;1476;-66
2023/11/15 09:20:12;;;;;;;;;;;20.00;67.20;;;;;;5017020;28;1385;-66
2023/11/15 09:22:38;;;;;;;;;;;20.00;67.20;;;;;;5002538;28;1308;-66
2023/11/15 09:25:04;;;;;;;;;;;20.00;67.10;;;;;;5000628;28;1288;-66
2023/11/15 09:27:29;;;;;;;;;;;20.00;67.10;;;;;;5003198;28;1295;-67
2023/11/15 09:29:55;;;;;;;;;;;20.00;67.10;;;;;;5002727;28;1504;-66
2023/11/15 09:32:20;;;;;;;;;;;20.00;67.00;;;;;;5002410;28;1902;-66
2023/11/15 09:34:48;;;;;;;;;;;20.00;67.00;;;;;;5004044;28;1301;-66
2023/11/15 09:37:14;;;;;;;;;;;20.00;67.00;;;;;;5003183;28;1276;-66
2023/11/15 09:39:39;;;;;;;;;;;20.10;67.00;;;;;;5017900;28;1378;-66
2023/11/15 09:42:06;;;;;;;;;;;20.10;67.00;;;;;;5001009;28;1583;-67
2023/11/15 09:44:33;;;;;;;;;;;20.10;66.90;;;;;;5006394;28;1355;-67
2023/11/15 09:46:59;;;;;;;;;;;20.10;66.90;;;;;;5001139;28;1423;-66
2023/11/15 09:49:24;;;;;;;;;;;20.00;66.80;;;;;;4999900;28;1237;-66
2023/11/15 09:51:51;;;;;;;;;;;20.10;66.90;;;;;;4998944;28;1981;-67
2023/11/15 09:54:19;;;;;;;;;;;20.10;66.90;;;;;;5001760;28;1321;-67
2023/11/15 09:56:45;;;;;;;;;;;20.10;66.90;;;;;;4983892;28;1355;-66
2023/11/15 09:59:11;;;;;;;;;;;20.10;66.90;;;;;;4998711;28;1330;-66
2023/11/15 10:01:42;;;;;;;;;;;20.10;66.90;;;;;;5001580;28;1386;-67
2023/11/15 10:04:07;;;;;;;;;;;20.10;67.00;;;;;;5001602;28;1296;-67
2023/11/15 10:06:40;;;;;;;;;;;20.10;67.00;;;;;;4999465;28;1520;-67
2023/11/15 10:09:05;;;;;;;;;;;20.00;66.90;;;;;;5014898;28;1823;-67
2023/11/15 10:11:31;;;;;;;;;;;20.00;66.90;;;;;;4997765;28;4755;-69
2023/11/15 10:14:15;;;;;;;;;;;20.00;67.00;;;;;;4996646;28;4390;-66
2023/11/15 10:16:48;;;;;;;;;;;20.00;67.00;;;;;;4990482;28;4214;-67
2023/11/15 10:19:24;;;;;;;;;;;20.00;67.00;;;;;;4999555;28;1419;-66
2023/11/15 10:22:00;;;;;;;;;;;20.00;67.10;;;;;;5000928;28;1271;-66
2023/11/15 10:24:28;;;;;;;;;;;20.00;67.10;;;;;;4999878;28;1448;-66
2023/11/15 10:27:07;;;;;;;;;;;20.00;67.10;;;;;;4995649;28;1543;-67
2023/11/15 10:29:33;;;;;;;;;;;20.00;67.10;;;;;;4997977;28;1346;-67
2023/11/15 10:32:00;;;;;;;;;;;20.00;67.10;;;;;;5014895;28;2007;-67
2023/11/15 10:34:32;;;;;;;;;;;20.00;67.10;;;;;;4998319;28;1738;-66
2023/11/15 10:37:02;;;;;;;;;;;20.00;67.10;;;;;;5003119;28;1514;-69
2023/11/15 10:39:28;;;;;;;;;;;20.00;67.10;;;;;;4996165;28;1693;-70
2023/11/15 10:41:55;;;;;;;;;;;20.00;67.00;;;;;;5004451;28;1856;-70
2023/11/15 10:44:21;;;;;;;;;;;20.00;67.10;;;;;;5002991;28;1471;-71
2023/11/15 10:46:47;;;;;;;;;;;20.00;67.00;;;;;;5018967;28;1327;-70
2023/11/15 10:49:13;;;;;;;;;;;20.00;67.00;;;;;;5005179;28;1498;-70
2023/11/15 10:51:40;;;;;;;;;;;20.00;67.00;;;;;;5020757;28;1898;-69
2023/11/15 10:54:08;;;;;;;;;;;20.00;67.00;;;;;;5003620;28;1360;-69
2023/11/15 10:56:34;;;;;;;;;;;20.00;67.00;;;;;;5006000;28;1344;-70
2023/11/15 10:59:00;;;;;;;;;;;20.10;67.00;;;;;;5019380;28;1390;-69
2023/11/15 11:01:29;;;;;;;;;;;20.10;67.00;;;;;;5019163;28;1426;-70
2023/11/15 11:03:55;;;;;;;;;;;20.10;67.00;;;;;;5006666;28;1288;-69
2023/11/15 11:06:21;;;;;;;;;;;20.10;66.90;;;;;;5004029;28;1248;-70
2023/11/15 11:08:53;;;;;;;;;;;20.00;66.90;;;;;;5002302;28;1481;-69
2023/11/15 11:11:28;;;;;;;;;;;20.10;66.90;;;;;;5003327;28;1931;-72
2023/11/15 11:14:13;;;;;;;;;;;20.10;66.90;;;;;;5002535;28;1590;-72
2023/11/15 11:16:40;;;;;;;;;;;20.10;66.90;;;;;;5001627;28;1181;-69
2023/11/15 11:19:11;;;;;;;;;;;20.10;66.90;;;;;;5003070;28;1289;-69
2023/11/15 11:21:55;;;;;;;;;;;20.10;66.90;;;;;;5018752;28;1355;-70
2023/11/15 11:24:22;;;;;;;;;;;20.10;66.80;;;;;;5008437;28;1447;-69
2023/11/15 11:26:48;;;;;;;;;;;20.10;66.80;;;;;;5002264;28;1355;-70
2023/11/15 11:29:13;;;;;;;;;;;20.10;66.70;;;;;;5002577;28;1319;-69
2023/11/15 11:31:39;;;;;;;;;;;20.10;66.70;;;;;;5007963;28;1910;-68
2023/11/15 11:34:12;;;;;;;;;;;20.10;66.70;;;;;;5005130;28;1443;-68
2023/11/15 11:36:49;;;;;;;;;;;20.10;66.70;;;;;;5015936;28;1377;-69
2023/11/15 11:39:22;;;;;;;;;;;20.10;66.70;;;;;;5006931;28;1437;-67
2023/11/15 11:41:49;;;;;;;;;;;20.20;66.60;;;;;;5005001;28;1227;-68
2023/11/15 11:44:15;;;;;;;;;;;20.20;66.60;;;;;;4999829;28;1261;-68
2023/11/15 11:46:40;;;;;;;;;;;20.20;66.60;;;;;;5006206;28;1323;-68
2023/11/15 11:49:08;;;;;;;;;;;20.20;66.60;;;;;;5002079;28;1598;-68
2023/11/15 11:51:33;;;;;;;;;;;20.20;66.50;;;;;;5003371;28;1902;-69
2023/11/15 11:53:59;;;;;;;;;;;20.20;66.50;;;;;;5002495;28;1433;-68
2023/11/15 11:56:25;;;;;;;;;;;20.20;66.50;;;;;;4999805;28;1556;-69
2023/11/15 11:58:50;;;;;;;;;;;20.20;66.50;;;;;;4996184;28;1349;-69
2023/11/15 12:01:16;;;;;;;;;;;20.20;66.50;;;;;;4997712;28;1408;-71
2023/11/15 12:03:47;;;;;;;;;;;20.20;66.50;;;;;;5001586;28;1420;-70
2023/11/15 12:06:13;;;;;;;;;;;20.20;66.50;;;;;;5003125;28;1317;-69
2023/11/15 12:08:39;;;;;;;;;;;20.20;66.50;;;;;;5004869;28;1290;-68
2023/11/15 12:11:05;;;;;;;;;;;20.20;66.60;;;;;;5020737;28;1253;-70
2023/11/15 12:13:42;;;;;;;;;;;20.20;66.60;;;;;;5005054;28;1902;-69
2023/11/15 12:16:21;;;;;;;;;;;20.10;66.50;;;;;;5001692;28;1440;-69
2023/11/15 12:19:03;;;;;;;;;;;20.20;66.60;;;;;;5000619;28;1545;-67
2023/11/15 12:21:30;;;;;;;;;;;20.10;66.60;;;;;;5002616;28;1563;-68
2023/11/15 12:23:56;;;;;;;;;;;20.10;66.60;;;;;;5002473;28;1364;-68
2023/11/15 12:26:21;;;;;;;;;;;20.10;66.70;;;;;;5002236;28;1344;-69
2023/11/15 12:28:48;;;;;;;;;;;20.10;66.70;;;;;;4984974;28;1372;-69
2023/11/15 12:31:13;;;;;;;;;;;20.10;66.70;;;;;;5000022;28;1148;-69
2023/11/15 12:33:39;;;;;;;;;;;20.10;66.80;;;;;;4991678;28;1898;-69
2023/11/15 12:36:06;;;;;;;;;;;20.10;66.80;;;;;;5004137;28;924;-68
2023/11/15 12:38:32;;;;;;;;;;;20.10;66.80;;;;;;5001280;28;1328;-71
2023/11/15 12:41:03;;;;;;;;;;;20.10;66.80;;;;;;5006134;28;1569;-69
2023/11/15 12:43:30;;;;;;;;;;;20.10;66.80;;;;;;5004234;28;1296;-69
2023/11/15 12:45:56;;;;;;;;;;;20.10;66.80;;;;;;4998204;28;1252;-67
2023/11/15 12:48:21;;;;;;;;;;;20.10;66.80;;;;;;5001271;28;1410;-66
2023/11/15 12:50:47;;;;;;;;;;;20.10;66.80;;;;;;5009429;28;1556;-68
2023/11/15 12:53:14;;;;;;;;;;;20.10;66.80;;;;;;5006324;28;1969;-67
2023/11/15 12:55:55;;;;;;;;;;;20.10;66.80;;;;;;5007583;28;1601;-67
2023/11/15 12:58:21;;;;;;;;;;;20.10;66.80;;;;;;5003512;28;1246;-68
2023/11/15 13:01:00;;;;;;;;;;;20.10;66.70;;;;;;5018562;28;1438;-67
2023/11/15 13:03:26;;;;;;;;;;;20.10;66.70;;;;;;5003417;28;1296;-68
2023/11/15 13:05:52;;;;;;;;;;;20.10;66.80;;;;;;5002086;28;1528;-68
2023/11/15 13:08:17;;;;;;;;;;;20.10;66.70;;;;;;5005889;28;1342;-68
2023/11/15 13:10:43;;;;;;;;;;;20.10;66.70;;;;;;5006125;28;1346;-71
2023/11/15 13:13:11;;;;;;;;;;;20.10;66.70;;;;;;4997009;28;1906;-72
2023/11/15 13:15:39;;;;;;;;;;;20.10;66.70;;;;;;5003585;28;1301;-72
2023/11/15 13:18:05;;;;;;;;;;;20.10;66.70;;;;;;5003355;28;1368;-71
2023/11/15 13:20:33;;;;;;;;;;;20.20;66.70;;;;;;5002102;28;1417;-66
2023/11/15 13:22:59;;;;;;;;;;;20.10;66.70;;;;;;4999146;28;1265;-66
2023/11/15 13:25:25;;;;;;;;;;;20.10;66.70;;;;;;5006643;28;1262;-66
2023/11/15 13:27:50;;;;;;;;;;;20.20;66.70;;;;;;5004821;28;1488;-69
2023/11/15 13:30:16;;;;;;;;;;;20.20;66.70;;;;;;5003228;28;1285;-68
2023/11/15 13:32:42;;;;;;;;;;;20.20;66.70;;;;;;5000033;28;1981;-69
2023/11/15 13:35:08;;;;;;;;;;;20.20;66.70;;;;;;5001989;28;1274;-68
2023/11/15 13:37:33;;;;;;;;;;;20.20;66.60;;;;;;5002256;28;1532;-70
2023/11/15 13:40:01;;;;;;;;;;;20.20;66.60;;;;;;5017553;28;1134;-68
2023/11/15 13:42:28;;;;;;;;;;;20.20;66.60;;;;;;5000749;28;1433;-70
2023/11/15 13:44:54;;;;;;;;;;;20.20;66.60;;;;;;5003954;28;1317;-67
2023/11/15 13:47:19;;;;;;;;;;;20.20;66.60;;;;;;5005345;28;1174;-67
2023/11/15 13:49:45;;;;;;;;;;;20.20;66.60;;;;;;5002105;28;1239;-67
2023/11/15 13:52:11;;;;;;;;;;;20.20;66.60;;;;;;5002757;28;1914;-67
2023/11/15 13:54:36;;;;;;;;;;;20.20;66.60;;;;;;5000526;28;1361;-66
2023/11/15 13:57:02;;;;;;;;;;;20.20;66.60;;;;;;5004858;28;1259;-66
2023/11/15 13:59:31;;;;;;;;;;;20.20;66.50;;;;;;5005826;28;1128;-67
2023/11/15 14:01:57;;;;;;;;;;;20.20;66.60;;;;;;5000126;28;1387;-67
2023/11/15 14:04:23;;;;;;;;;;;20.10;66.50;;;;;;5002891;28;1308;-67
2023/11/15 14:06:51;;;;;;;;;;;20.20;66.60;;;;;;5001265;28;1156;-67
2023/11/15 14:09:16;;;;;;;;;;;20.20;66.60;;;;;;5003591;28;1227;-67
2023/11/15 14:11:44;;;;;;;;;;;20.20;66.60;;;;;;5003331;28;1906;-66
2023/11/15 14:14:10;;;;;;;;;;;20.20;66.70;;;;;;5000288;28;1347;-67
2023/11/15 14:16:35;;;;;;;;;;;20.20;66.70;;;;;;5001558;28;1429;-66
2023/11/15 14:19:09;;;;;;;;;;;20.20;66.70;;;;;;5003018;28;1406;-66
2023/11/15 14:21:36;;;;;;;;;;;20.10;66.70;;;;;;5002223;28;1420;-66
2023/11/15 14:24:02;;;;;;;;;;;20.10;66.80;;;;;;5005676;28;1574;-66
2023/11/15 14:26:27;;;;;;;;;;;20.10;66.70;;;;;;5002391;28;1293;-66
2023/11/15 14:28:53;;;;;;;;;;;20.10;66.80;;;;;;5001208;28;1295;-66